Impacts METAR Board
IDs:

KGTU - Georgetown Muni, TX, US

Updated at: 1200 UTC 16 Jul 2019
Potential Impact None Slight Moderate High
Time 16/00Z 16/01Z 16/02Z 16/03Z 16/04Z 16/05Z 16/06Z 16/07Z 16/08Z 16/09Z 16/10Z 16/11Z 16/12Z
Temp93 92 89 87 86 85 84 82 81 80 79 79 79
Dewpt74 73 74 73 73 74 74 74 74 74 74 74 73
Altim29.89 29.90 29.91 29.92 29.94 29.95 29.96 29.97 29.97 29.98 29.98 29.99 30.00
VIS10 10 10 10 10 10 10 10 10 10 10 10 10
CIG100 -- -- -- -- -- -- -- -- -- -- -- 16
CoverBKNCLRCLRCLRCLRCLRCLRCLRCLRCLRSCTFEWBKN
FltCatVFRVFRVFRVFRVFRVFRVFRVFRVFRVFRVFRVFRMVFR
WX--------------------------
WDir190170140160170170190170180190190190190
WSpd11 6 4 4 8 10 13 10 10 10 12 9 13
WGst-- -- -- -- -- -- -- -- -- -- -- -- --
Raw hourly METARs
KGTU 152356Z 19011KT 10SM BKN100 34/23 A2989 RMK AO2 LTG DSNT E SLP114 T03390233 10361 20328 58007
KGTU 160056Z 17006KT 10SM CLR 33/23 A2990 RMK AO2 SLP117 T03330228
KGTU 160156Z 14004KT 10SM CLR 32/23 A2991 RMK AO2 SLP119 T03170233
KGTU 160256Z 16004KT 10SM CLR 31/23 A2992 RMK AO2 SLP122 T03060228 51009
KGTU 160356Z AUTO 17008KT 10SM CLR 30/23 A2994 RMK AO2 SLP127 T03000228
KGTU 160456Z AUTO 17010KT 10SM CLR 29/23 A2995 RMK AO2 SLP133 T02940233
KGTU 160556Z AUTO 19013KT 10SM CLR 29/23 A2996 RMK AO2 SLP137 T02890233 10339 20289 403610228 51016
KGTU 160656Z AUTO 17010KT 10SM CLR 28/23 A2997 RMK AO2 SLP139 T02780233
KGTU 160756Z AUTO 18010KT 10SM CLR 27/23 A2997 RMK AO2 SLP140 T02720233
KGTU 160856Z AUTO 19010KT 10SM CLR 27/23 A2998 RMK AO2 SLP141 T02670233 51004
KGTU 160956Z AUTO 19012KT 10SM SCT014 26/23 A2998 RMK AO2 SLP141 T02610233
KGTU 161056Z AUTO 19009KT 10SM FEW014 26/23 A2999 RMK AO2 SLP148 T02610233
KGTU 161156Z 19013KT 10SM BKN016 26/23 A3000 RMK AO2 SLP152 T02610228 10289 20256 53009